sensor_id;sensor_type;location;lat;lon;timestamp;pressure;altitude;pressure_sealevel;temperature;humidity
26711;BME280;18311;52.754;18.118;2022-08-14T00:01:05;100455.02;;;21.59;100.00
26711;BME280;18311;52.754;18.118;2022-08-14T00:03:38;100450.55;;;21.08;100.00
26711;BME280;18311;52.754;18.118;2022-08-14T00:06:10;100444.47;;;21.35;100.00
26711;BME280;18311;52.754;18.118;2022-08-14T00:08:43;100448.59;;;21.20;100.00
26711;BME280;18311;52.754;18.118;2022-08-14T00:11:14;100434.73;;;21.33;100.00
26711;BME280;18311;52.754;18.118;2022-08-14T00:13:46;100433.78;;;21.03;100.00
26711;BME280;18311;52.754;18.118;2022-08-14T00:16:19;100435.33;;;20.96;100.00
26711;BME280;18311;52.754;18.118;2022-08-14T00:18:54;100437.14;;;21.16;100.00
26711;BME280;18311;52.754;18.118;2022-08-14T00:21:27;100452.80;;;21.34;100.00
26711;BME280;18311;52.754;18.118;2022-08-14T00:23:59;100444.20;;;21.38;100.00
26711;BME280;18311;52.754;18.118;2022-08-14T00:26:30;100437.85;;;21.18;100.00
26711;BME280;18311;52.754;18.118;2022-08-14T00:29:03;100431.83;;;21.15;100.00
26711;BME280;18311;52.754;18.118;2022-08-14T00:31:36;100432.41;;;21.18;100.00
26711;BME280;18311;52.754;18.118;2022-08-14T00:34:08;100440.45;;;20.89;100.00
26711;BME280;18311;52.754;18.118;2022-08-14T00:36:41;100437.03;;;20.97;100.00
26711;BME280;18311;52.754;18.118;2022-08-14T00:39:14;100434.61;;;20.93;100.00
26711;BME280;18311;52.754;18.118;2022-08-14T00:41:48;100438.23;;;20.73;100.00
26711;BME280;18311;52.754;18.118;2022-08-14T00:44:20;100440.75;;;20.65;100.00
26711;BME280;18311;52.754;18.118;2022-08-14T00:46:53;100437.54;;;20.60;100.00
26711;BME280;18311;52.754;18.118;2022-08-14T00:49:27;100440.01;;;20.42;100.00
26711;BME280;18311;52.754;18.118;2022-08-14T00:52:02;100446.16;;;20.44;100.00
26711;BME280;18311;52.754;18.118;2022-08-14T00:54:36;100443.40;;;20.34;100.00
26711;BME280;18311;52.754;18.118;2022-08-14T00:57:08;100432.97;;;20.39;100.00
26711;BME280;18311;52.754;18.118;2022-08-14T00:59:40;100428.30;;;20.41;100.00
26711;BME280;18311;52.754;18.118;2022-08-14T01:02:15;100429.41;;;20.38;100.00
26711;BME280;18311;52.754;18.118;2022-08-14T01:04:48;100424.31;;;20.45;100.00
26711;BME280;18311;52.754;18.118;2022-08-14T01:07:22;100431.01;;;20.20;100.00
26711;BME280;18311;52.754;18.118;2022-08-14T01:09:57;100435.42;;;20.21;100.00
26711;BME280;18311;52.754;18.118;2022-08-14T01:12:30;100425.62;;;20.30;100.00
26711;BME280;18311;52.754;18.118;2022-08-14T01:15:05;100433.72;;;20.41;100.00
26711;BME280;18311;52.754;18.118;2022-08-14T01:17:38;100427.02;;;20.45;100.00
26711;BME280;18311;52.754;18.118;2022-08-14T01:20:29;100430.41;;;20.16;100.00
26711;BME280;18311;52.754;18.118;2022-08-14T01:23:20;100425.16;;;20.25;100.00
26711;BME280;18311;52.754;18.118;2022-08-14T01:25:51;100419.47;;;20.07;100.00
26711;BME280;18311;52.754;18.118;2022-08-14T01:28:24;100415.21;;;19.93;100.00
26711;BME280;18311;52.754;18.118;2022-08-14T01:30:58;100415.83;;;20.17;100.00
26711;BME280;18311;52.754;18.118;2022-08-14T01:33:30;100423.45;;;20.03;100.00
26711;BME280;18311;52.754;18.118;2022-08-14T01:36:04;100420.52;;;19.94;100.00
26711;BME280;18311;52.754;18.118;2022-08-14T01:38:40;100426.92;;;19.93;100.00
26711;BME280;18311;52.754;18.118;2022-08-14T01:41:15;100430.67;;;20.13;100.00
26711;BME280;18311;52.754;18.118;2022-08-14T01:43:50;100432.71;;;20.21;100.00
26711;BME280;18311;52.754;18.118;2022-08-14T01:46:24;100424.17;;;20.05;100.00
26711;BME280;18311;52.754;18.118;2022-08-14T01:48:57;100433.01;;;19.86;100.00
26711;BME280;18311;52.754;18.118;2022-08-14T01:51:30;100429.16;;;19.88;100.00
26711;BME280;18311;52.754;18.118;2022-08-14T01:54:05;100431.38;;;19.94;100.00
26711;BME280;18311;52.754;18.118;2022-08-14T01:56:38;100432.66;;;19.79;100.00
26711;BME280;18311;52.754;18.118;2022-08-14T02:01:51;100439.03;;;19.89;100.00
26711;BME280;18311;52.754;18.118;2022-08-14T02:04:29;100424.89;;;20.07;100.00
26711;BME280;18311;52.754;18.118;2022-08-14T02:07:03;100417.25;;;19.68;100.00
26711;BME280;18311;52.754;18.118;2022-08-14T02:09:36;100431.27;;;19.85;100.00
26711;BME280;18311;52.754;18.118;2022-08-14T02:12:08;100433.95;;;19.96;100.00
26711;BME280;18311;52.754;18.118;2022-08-14T02:14:41;100422.28;;;19.84;100.00
26711;BME280;18311;52.754;18.118;2022-08-14T02:17:14;100418.70;;;19.72;100.00
26711;BME280;18311;52.754;18.118;2022-08-14T02:19:45;100414.19;;;19.61;100.00
26711;BME280;18311;52.754;18.118;2022-08-14T02:22:18;100421.29;;;19.30;100.00
26711;BME280;18311;52.754;18.118;2022-08-14T02:24:51;100414.89;;;19.20;100.00
26711;BME280;18311;52.754;18.118;2022-08-14T02:27:24;100399.11;;;19.36;100.00
26711;BME280;18311;52.754;18.118;2022-08-14T02:29:58;100405.63;;;19.34;100.00
26711;BME280;18311;52.754;18.118;2022-08-14T02:32:32;100408.45;;;19.43;100.00
26711;BME280;18311;52.754;18.118;2022-08-14T02:35:08;100412.33;;;19.62;100.00
26711;BME280;18311;52.754;18.118;2022-08-14T02:37:43;100407.66;;;19.64;100.00
26711;BME280;18311;52.754;18.118;2022-08-14T02:40:19;100401.82;;;19.36;100.00
26711;BME280;18311;52.754;18.118;2022-08-14T02:42:51;100400.56;;;19.40;100.00
26711;BME280;18311;52.754;18.118;2022-08-14T02:45:27;100392.19;;;19.43;100.00
26711;BME280;18311;52.754;18.118;2022-08-14T02:48:03;100394.90;;;19.43;100.00
26711;BME280;18311;52.754;18.118;2022-08-14T02:50:39;100393.94;;;19.33;100.00
26711;BME280;18311;52.754;18.118;2022-08-14T02:53:14;100391.11;;;19.23;100.00
26711;BME280;18311;52.754;18.118;2022-08-14T02:55:45;100400.25;;;19.22;100.00
26711;BME280;18311;52.754;18.118;2022-08-14T02:58:18;100398.99;;;19.27;100.00
26711;BME280;18311;52.754;18.118;2022-08-14T03:00:52;100395.14;;;19.40;100.00
26711;BME280;18311;52.754;18.118;2022-08-14T03:03:25;100390.13;;;19.24;100.00
26711;BME280;18311;52.754;18.118;2022-08-14T03:05:58;100379.66;;;19.31;100.00
26711;BME280;18311;52.754;18.118;2022-08-14T03:08:30;100386.33;;;19.16;100.00
26711;BME280;18311;52.754;18.118;2022-08-14T03:11:03;100390.14;;;19.13;100.00
26711;BME280;18311;52.754;18.118;2022-08-14T03:13:49;100381.47;;;19.42;100.00
26711;BME280;18311;52.754;18.118;2022-08-14T03:16:18;100381.75;;;19.28;100.00
26711;BME280;18311;52.754;18.118;2022-08-14T03:18:53;100382.75;;;18.81;100.00
26711;BME280;18311;52.754;18.118;2022-08-14T03:21:28;100382.04;;;19.02;100.00
26711;BME280;18311;52.754;18.118;2022-08-14T03:24:02;100374.23;;;19.20;100.00
26711;BME280;18311;52.754;18.118;2022-08-14T03:26:47;100375.25;;;19.19;100.00
26711;BME280;18311;52.754;18.118;2022-08-14T03:29:19;100377.06;;;19.30;100.00
26711;BME280;18311;52.754;18.118;2022-08-14T03:31:53;100374.88;;;19.01;100.00
26711;BME280;18311;52.754;18.118;2022-08-14T03:34:25;100366.22;;;19.30;100.00
26711;BME280;18311;52.754;18.118;2022-08-14T03:36:58;100354.77;;;19.26;100.00
26711;BME280;18311;52.754;18.118;2022-08-14T03:39:31;100362.17;;;19.24;100.00
26711;BME280;18311;52.754;18.118;2022-08-14T03:42:04;100361.17;;;19.25;100.00
26711;BME280;18311;52.754;18.118;2022-08-14T03:44:37;100356.10;;;19.32;100.00
26711;BME280;18311;52.754;18.118;2022-08-14T03:47:11;100367.30;;;19.38;100.00
26711;BME280;18311;52.754;18.118;2022-08-14T03:49:44;100369.05;;;19.28;100.00
26711;BME280;18311;52.754;18.118;2022-08-14T03:52:18;100364.34;;;19.41;100.00
26711;BME280;18311;52.754;18.118;2022-08-14T03:54:52;100366.17;;;19.41;100.00
26711;BME280;18311;52.754;18.118;2022-08-14T03:57:23;100363.34;;;19.42;100.00
26711;BME280;18311;52.754;18.118;2022-08-14T03:59:54;100357.23;;;19.61;100.00
26711;BME280;18311;52.754;18.118;2022-08-14T04:02:25;100357.79;;;19.44;100.00
26711;BME280;18311;52.754;18.118;2022-08-14T04:04:57;100367.78;;;19.43;100.00
26711;BME280;18311;52.754;18.118;2022-08-14T04:07:30;100375.27;;;19.51;100.00
26711;BME280;18311;52.754;18.118;2022-08-14T04:10:04;100361.83;;;19.50;100.00
26711;BME280;18311;52.754;18.118;2022-08-14T04:12:38;100361.95;;;19.48;100.00
26711;BME280;18311;52.754;18.118;2022-08-14T04:15:12;100366.58;;;19.36;100.00
26711;BME280;18311;52.754;18.118;2022-08-14T04:17:45;100367.92;;;19.31;100.00
26711;BME280;18311;52.754;18.118;2022-08-14T04:20:16;100364.72;;;19.37;100.00
26711;BME280;18311;52.754;18.118;2022-08-14T04:22:50;100366.70;;;19.35;100.00
26711;BME280;18311;52.754;18.118;2022-08-14T04:25:25;100363.94;;;19.46;100.00
26711;BME280;18311;52.754;18.118;2022-08-14T04:27:56;100359.42;;;19.35;100.00
26711;BME280;18311;52.754;18.118;2022-08-14T04:30:29;100367.25;;;19.50;100.00
26711;BME280;18311;52.754;18.118;2022-08-14T04:33:01;100363.10;;;19.34;100.00
26711;BME280;18311;52.754;18.118;2022-08-14T04:35:36;100366.65;;;19.46;100.00
26711;BME280;18311;52.754;18.118;2022-08-14T04:38:09;100370.02;;;19.38;100.00
26711;BME280;18311;52.754;18.118;2022-08-14T04:41:00;100371.22;;;19.46;100.00
26711;BME280;18311;52.754;18.118;2022-08-14T04:43:50;100377.38;;;19.48;100.00
26711;BME280;18311;52.754;18.118;2022-08-14T04:46:22;100376.34;;;19.60;100.00
26711;BME280;18311;52.754;18.118;2022-08-14T04:48:54;100357.58;;;19.68;100.00
26711;BME280;18311;52.754;18.118;2022-08-14T04:51:28;100364.52;;;19.61;100.00
26711;BME280;18311;52.754;18.118;2022-08-14T04:54:01;100372.66;;;19.61;100.00
26711;BME280;18311;52.754;18.118;2022-08-14T04:56:32;100362.30;;;19.55;100.00
26711;BME280;18311;52.754;18.118;2022-08-14T04:59:05;100365.49;;;19.60;100.00
26711;BME280;18311;52.754;18.118;2022-08-14T05:01:39;100367.23;;;19.61;100.00
26711;BME280;18311;52.754;18.118;2022-08-14T05:04:14;100359.47;;;19.56;100.00
26711;BME280;18311;52.754;18.118;2022-08-14T05:06:53;100374.70;;;19.69;100.00
26711;BME280;18311;52.754;18.118;2022-08-14T05:09:23;100373.22;;;19.76;100.00
26711;BME280;18311;52.754;18.118;2022-08-14T05:11:56;100370.00;;;19.71;100.00
26711;BME280;18311;52.754;18.118;2022-08-14T05:14:29;100365.59;;;19.70;100.00
26711;BME280;18311;52.754;18.118;2022-08-14T05:17:02;100364.45;;;19.72;100.00
26711;BME280;18311;52.754;18.118;2022-08-14T05:19:34;100355.84;;;19.67;100.00
26711;BME280;18311;52.754;18.118;2022-08-14T05:22:07;100348.56;;;20.00;100.00
26711;BME280;18311;52.754;18.118;2022-08-14T05:24:40;100352.80;;;20.14;100.00
26711;BME280;18311;52.754;18.118;2022-08-14T05:27:12;100356.56;;;20.23;100.00
26711;BME280;18311;52.754;18.118;2022-08-14T05:29:43;100351.01;;;20.24;100.00
26711;BME280;18311;52.754;18.118;2022-08-14T05:32:15;100345.47;;;20.05;100.00
26711;BME280;18311;52.754;18.118;2022-08-14T05:34:48;100346.26;;;20.16;100.00
26711;BME280;18311;52.754;18.118;2022-08-14T05:37:19;100337.30;;;20.26;100.00
26711;BME280;18311;52.754;18.118;2022-08-14T05:39:51;100339.69;;;20.19;100.00
26711;BME280;18311;52.754;18.118;2022-08-14T05:42:23;100342.18;;;20.32;100.00
26711;BME280;18311;52.754;18.118;2022-08-14T05:44:56;100340.51;;;20.41;100.00
26711;BME280;18311;52.754;18.118;2022-08-14T05:47:27;100334.55;;;20.47;100.00
26711;BME280;18311;52.754;18.118;2022-08-14T05:50:00;100341.45;;;20.30;100.00
26711;BME280;18311;52.754;18.118;2022-08-14T05:52:33;100337.98;;;20.49;100.00
26711;BME280;18311;52.754;18.118;2022-08-14T05:55:07;100336.53;;;20.66;100.00
26711;BME280;18311;52.754;18.118;2022-08-14T05:57:54;100336.05;;;20.61;100.00
26711;BME280;18311;52.754;18.118;2022-08-14T06:00:32;100333.81;;;20.66;100.00
26711;BME280;18311;52.754;18.118;2022-08-14T06:03:09;100332.81;;;20.46;100.00
26711;BME280;18311;52.754;18.118;2022-08-14T06:05:45;100322.37;;;20.72;100.00
26711;BME280;18311;52.754;18.118;2022-08-14T06:08:21;100325.66;;;20.66;100.00
26711;BME280;18311;52.754;18.118;2022-08-14T06:10:59;100319.21;;;20.67;100.00
26711;BME280;18311;52.754;18.118;2022-08-14T06:13:37;100315.56;;;20.87;100.00
26711;BME280;18311;52.754;18.118;2022-08-14T06:16:12;100316.15;;;20.91;100.00
26711;BME280;18311;52.754;18.118;2022-08-14T06:18:47;100315.17;;;21.02;100.00
26711;BME280;18311;52.754;18.118;2022-08-14T06:21:21;100321.63;;;21.01;100.00
26711;BME280;18311;52.754;18.118;2022-08-14T06:23:54;100314.63;;;21.18;100.00
26711;BME280;18311;52.754;18.118;2022-08-14T06:26:27;100316.95;;;21.32;100.00
26711;BME280;18311;52.754;18.118;2022-08-14T06:28:59;100316.22;;;21.20;100.00
26711;BME280;18311;52.754;18.118;2022-08-14T06:31:30;100318.08;;;21.29;100.00
26711;BME280;18311;52.754;18.118;2022-08-14T06:34:02;100315.94;;;21.23;100.00
26711;BME280;18311;52.754;18.118;2022-08-14T06:36:34;100318.37;;;21.36;100.00
26711;BME280;18311;52.754;18.118;2022-08-14T06:39:08;100309.97;;;21.59;100.00
26711;BME280;18311;52.754;18.118;2022-08-14T06:41:40;100303.20;;;21.82;100.00
26711;BME280;18311;52.754;18.118;2022-08-14T06:44:13;100297.84;;;22.10;100.00
26711;BME280;18311;52.754;18.118;2022-08-14T06:46:44;100290.66;;;22.19;100.00
26711;BME280;18311;52.754;18.118;2022-08-14T06:49:18;100283.06;;;22.32;100.00
26711;BME280;18311;52.754;18.118;2022-08-14T06:51:51;100279.92;;;22.65;100.00
26711;BME280;18311;52.754;18.118;2022-08-14T06:54:23;100267.25;;;22.73;100.00
26711;BME280;18311;52.754;18.118;2022-08-14T06:56:56;100268.27;;;22.90;100.00
26711;BME280;18311;52.754;18.118;2022-08-14T06:59:27;100266.33;;;22.55;100.00
26711;BME280;18311;52.754;18.118;2022-08-14T07:02:00;100258.47;;;22.97;100.00
26711;BME280;18311;52.754;18.118;2022-08-14T07:04:50;100258.45;;;22.79;100.00
26711;BME280;18311;52.754;18.118;2022-08-14T07:07:41;100260.20;;;22.98;100.00
26711;BME280;18311;52.754;18.118;2022-08-14T07:10:13;100264.95;;;22.96;100.00
26711;BME280;18311;52.754;18.118;2022-08-14T07:12:46;100268.02;;;23.11;100.00
26711;BME280;18311;52.754;18.118;2022-08-14T07:15:19;100276.98;;;23.22;100.00
26711;BME280;18311;52.754;18.118;2022-08-14T07:17:51;100267.64;;;23.42;100.00
26711;BME280;18311;52.754;18.118;2022-08-14T07:20:22;100254.92;;;23.51;100.00
26711;BME280;18311;52.754;18.118;2022-08-14T07:22:55;100251.78;;;23.64;100.00
26711;BME280;18311;52.754;18.118;2022-08-14T07:25:29;100242.64;;;23.91;100.00
26711;BME280;18311;52.754;18.118;2022-08-14T07:28:11;100240.53;;;23.85;100.00
26711;BME280;18311;52.754;18.118;2022-08-14T07:30:40;100242.51;;;24.01;100.00
26711;BME280;18311;52.754;18.118;2022-08-14T07:33:13;100228.52;;;23.78;100.00
26711;BME280;18311;52.754;18.118;2022-08-14T07:35:44;100215.80;;;23.86;100.00
26711;BME280;18311;52.754;18.118;2022-08-14T07:38:20;100232.19;;;23.86;100.00
26711;BME280;18311;52.754;18.118;2022-08-14T07:40:51;100228.22;;;24.07;100.00
26711;BME280;18311;52.754;18.118;2022-08-14T07:43:24;100235.07;;;23.85;100.00
26711;BME280;18311;52.754;18.118;2022-08-14T07:45:56;100225.56;;;23.89;100.00
26711;BME280;18311;52.754;18.118;2022-08-14T07:48:28;100224.96;;;24.03;100.00
26711;BME280;18311;52.754;18.118;2022-08-14T07:51:00;100222.33;;;24.54;100.00
26711;BME280;18311;52.754;18.118;2022-08-14T07:53:33;100214.00;;;24.64;100.00
26711;BME280;18311;52.754;18.118;2022-08-14T07:56:06;100213.54;;;24.85;100.00
26711;BME280;18311;52.754;18.118;2022-08-14T07:58:40;100212.17;;;24.89;100.00
26711;BME280;18311;52.754;18.118;2022-08-14T08:01:13;100205.86;;;24.88;100.00
26711;BME280;18311;52.754;18.118;2022-08-14T08:03:57;100208.53;;;24.72;100.00
26711;BME280;18311;52.754;18.118;2022-08-14T08:06:47;100209.81;;;25.02;100.00
26711;BME280;18311;52.754;18.118;2022-08-14T08:09:23;100213.23;;;25.04;100.00
26711;BME280;18311;52.754;18.118;2022-08-14T08:11:56;100213.53;;;24.93;100.00
26711;BME280;18311;52.754;18.118;2022-08-14T08:14:28;100215.08;;;25.04;100.00
26711;BME280;18311;52.754;18.118;2022-08-14T08:17:01;100214.42;;;25.10;100.00
26711;BME280;18311;52.754;18.118;2022-08-14T08:19:35;100214.59;;;25.09;100.00
26711;BME280;18311;52.754;18.118;2022-08-14T08:22:08;100215.29;;;25.19;100.00
26711;BME280;18311;52.754;18.118;2022-08-14T08:24:42;100218.69;;;25.13;100.00
26711;BME280;18311;52.754;18.118;2022-08-14T08:27:16;100222.98;;;25.15;100.00
26711;BME280;18311;52.754;18.118;2022-08-14T08:29:50;100219.86;;;24.85;100.00
26711;BME280;18311;52.754;18.118;2022-08-14T08:32:23;100223.44;;;24.86;100.00
26711;BME280;18311;52.754;18.118;2022-08-14T08:34:57;100221.06;;;24.91;100.00
26711;BME280;18311;52.754;18.118;2022-08-14T08:37:28;100221.77;;;25.18;100.00
26711;BME280;18311;52.754;18.118;2022-08-14T08:40:03;100218.92;;;25.28;100.00
26711;BME280;18311;52.754;18.118;2022-08-14T08:42:34;100218.74;;;25.54;100.00
26711;BME280;18311;52.754;18.118;2022-08-14T08:45:07;100219.61;;;25.38;100.00
26711;BME280;18311;52.754;18.118;2022-08-14T08:47:41;100210.19;;;25.49;100.00
26711;BME280;18311;52.754;18.118;2022-08-14T08:50:25;100206.72;;;25.05;100.00
26711;BME280;18311;52.754;18.118;2022-08-14T08:53:03;100196.34;;;25.58;100.00
26711;BME280;18311;52.754;18.118;2022-08-14T08:55:41;100194.78;;;25.64;100.00
26711;BME280;18311;52.754;18.118;2022-08-14T08:58:17;100187.24;;;25.74;100.00
26711;BME280;18311;52.754;18.118;2022-08-14T09:00:51;100190.53;;;26.26;100.00
26711;BME280;18311;52.754;18.118;2022-08-14T09:03:26;100188.72;;;26.10;100.00
26711;BME280;18311;52.754;18.118;2022-08-14T09:06:03;100179.17;;;25.97;100.00
26711;BME280;18311;52.754;18.118;2022-08-14T09:08:36;100182.34;;;26.17;100.00
26711;BME280;18311;52.754;18.118;2022-08-14T09:11:09;100179.80;;;26.47;100.00
26711;BME280;18311;52.754;18.118;2022-08-14T09:13:43;100169.12;;;26.61;100.00
26711;BME280;18311;52.754;18.118;2022-08-14T09:16:15;100170.58;;;26.80;100.00
26711;BME280;18311;52.754;18.118;2022-08-14T09:18:48;100173.05;;;26.66;100.00
26711;BME280;18311;52.754;18.118;2022-08-14T09:21:22;100170.24;;;26.43;100.00
26711;BME280;18311;52.754;18.118;2022-08-14T09:23:55;100161.86;;;26.99;100.00
26711;BME280;18311;52.754;18.118;2022-08-14T09:26:28;100161.75;;;27.39;100.00
26711;BME280;18311;52.754;18.118;2022-08-14T09:29:01;100151.13;;;27.36;100.00
26711;BME280;18311;52.754;18.118;2022-08-14T09:31:34;100148.91;;;27.69;100.00
26711;BME280;18311;52.754;18.118;2022-08-14T09:40:04;100134.23;;;27.62;100.00
26711;BME280;18311;52.754;18.118;2022-08-14T09:42:56;100133.67;;;27.66;100.00
26711;BME280;18311;52.754;18.118;2022-08-14T09:45:34;100131.20;;;27.86;100.00
26711;BME280;18311;52.754;18.118;2022-08-14T09:48:14;100130.16;;;27.73;100.00
26711;BME280;18311;52.754;18.118;2022-08-14T09:50:54;100131.52;;;27.92;100.00
26711;BME280;18311;52.754;18.118;2022-08-14T09:53:40;100122.53;;;27.98;100.00
26711;BME280;18311;52.754;18.118;2022-08-14T09:56:14;100112.56;;;27.82;100.00
26711;BME280;18311;52.754;18.118;2022-08-14T09:58:47;100109.02;;;28.33;100.00
26711;BME280;18311;52.754;18.118;2022-08-14T10:01:20;100114.39;;;28.56;100.00
26711;BME280;18311;52.754;18.118;2022-08-14T10:03:56;100118.13;;;28.18;100.00
26711;BME280;18311;52.754;18.118;2022-08-14T10:06:30;100111.42;;;27.61;100.00
26711;BME280;18311;52.754;18.118;2022-08-14T10:09:04;100112.28;;;27.77;100.00
26711;BME280;18311;52.754;18.118;2022-08-14T10:11:39;100115.32;;;28.12;100.00
26711;BME280;18311;52.754;18.118;2022-08-14T10:14:23;100115.95;;;28.65;100.00
26711;BME280;18311;52.754;18.118;2022-08-14T10:16:57;100119.00;;;28.19;100.00
26711;BME280;18311;52.754;18.118;2022-08-14T10:19:32;100123.18;;;28.51;100.00
26711;BME280;18311;52.754;18.118;2022-08-14T10:22:09;100102.61;;;28.84;100.00
26711;BME280;18311;52.754;18.118;2022-08-14T10:24:43;100109.00;;;29.12;100.00
26711;BME280;18311;52.754;18.118;2022-08-14T10:27:21;100117.14;;;28.77;100.00
26711;BME280;18311;52.754;18.118;2022-08-14T10:29:57;100107.08;;;27.97;100.00
26711;BME280;18311;52.754;18.118;2022-08-14T10:32:30;100097.30;;;28.09;100.00
26711;BME280;18311;52.754;18.118;2022-08-14T10:35:07;100102.27;;;28.93;100.00
26711;BME280;18311;52.754;18.118;2022-08-14T10:37:46;100115.16;;;29.14;100.00
26711;BME280;18311;52.754;18.118;2022-08-14T10:40:27;100110.25;;;28.30;100.00
26711;BME280;18311;52.754;18.118;2022-08-14T10:43:00;100107.73;;;27.84;100.00
26711;BME280;18311;52.754;18.118;2022-08-14T10:45:33;100104.12;;;28.50;100.00
26711;BME280;18311;52.754;18.118;2022-08-14T10:48:14;100095.91;;;27.98;100.00
26711;BME280;18311;52.754;18.118;2022-08-14T10:50:47;100099.38;;;27.62;100.00
26711;BME280;18311;52.754;18.118;2022-08-14T10:53:33;100098.24;;;27.57;100.00
26711;BME280;18311;52.754;18.118;2022-08-14T10:56:10;100088.41;;;27.77;100.00
26711;BME280;18311;52.754;18.118;2022-08-14T10:58:44;100098.34;;;27.63;100.00
26711;BME280;18311;52.754;18.118;2022-08-14T11:01:16;100086.41;;;27.56;100.00
26711;BME280;18311;52.754;18.118;2022-08-14T11:03:47;100094.45;;;28.17;100.00
26711;BME280;18311;52.754;18.118;2022-08-14T11:06:23;100106.05;;;28.34;100.00
26711;BME280;18311;52.754;18.118;2022-08-14T11:08:56;100092.58;;;27.73;100.00
26711;BME280;18311;52.754;18.118;2022-08-14T11:11:27;100099.11;;;27.72;100.00
26711;BME280;18311;52.754;18.118;2022-08-14T11:14:00;100105.25;;;27.74;100.00
26711;BME280;18311;52.754;18.118;2022-08-14T11:16:33;100102.66;;;27.05;100.00
26711;BME280;18311;52.754;18.118;2022-08-14T11:19:07;100094.94;;;26.85;100.00
26711;BME280;18311;52.754;18.118;2022-08-14T11:21:40;100106.58;;;27.10;100.00
26711;BME280;18311;52.754;18.118;2022-08-14T11:24:16;100092.18;;;27.76;100.00
26711;BME280;18311;52.754;18.118;2022-08-14T11:26:51;100095.93;;;28.35;100.00
26711;BME280;18311;52.754;18.118;2022-08-14T11:29:22;100098.83;;;28.12;100.00
26711;BME280;18311;52.754;18.118;2022-08-14T11:31:56;100094.09;;;28.05;100.00
26711;BME280;18311;52.754;18.118;2022-08-14T11:34:29;100098.87;;;28.33;100.00
26711;BME280;18311;52.754;18.118;2022-08-14T11:37:10;100096.33;;;28.17;100.00
26711;BME280;18311;52.754;18.118;2022-08-14T11:39:43;100101.64;;;28.18;100.00
26711;BME280;18311;52.754;18.118;2022-08-14T11:42:25;100098.37;;;27.93;100.00
26711;BME280;18311;52.754;18.118;2022-08-14T11:45:03;100088.68;;;28.12;100.00
26711;BME280;18311;52.754;18.118;2022-08-14T11:47:37;100096.94;;;28.49;100.00
26711;BME280;18311;52.754;18.118;2022-08-14T11:50:19;100080.06;;;28.95;100.00
26711;BME280;18311;52.754;18.118;2022-08-14T11:52:55;100093.52;;;28.10;100.00
26711;BME280;18311;52.754;18.118;2022-08-14T11:55:39;100076.33;;;28.23;100.00
26711;BME280;18311;52.754;18.118;2022-08-14T11:58:10;100083.46;;;28.17;100.00
26711;BME280;18311;52.754;18.118;2022-08-14T12:00:48;100075.89;;;27.90;100.00
26711;BME280;18311;52.754;18.118;2022-08-14T12:03:21;100076.22;;;28.31;100.00
26711;BME280;18311;52.754;18.118;2022-08-14T12:06:02;100077.34;;;28.37;100.00
26711;BME280;18311;52.754;18.118;2022-08-14T12:08:31;100076.23;;;28.53;100.00
26711;BME280;18311;52.754;18.118;2022-08-14T12:11:06;100068.47;;;28.78;100.00
26711;BME280;18311;52.754;18.118;2022-08-14T12:13:39;100067.76;;;28.91;100.00
26711;BME280;18311;52.754;18.118;2022-08-14T12:16:14;100073.84;;;28.86;100.00
26711;BME280;18311;52.754;18.118;2022-08-14T12:18:49;100067.05;;;28.82;100.00
26711;BME280;18311;52.754;18.118;2022-08-14T12:21:23;100068.02;;;28.96;100.00
26711;BME280;18311;52.754;18.118;2022-08-14T12:24:09;100070.27;;;28.64;100.00
26711;BME280;18311;52.754;18.118;2022-08-14T12:26:42;100069.86;;;28.89;100.00
26711;BME280;18311;52.754;18.118;2022-08-14T12:29:17;100073.58;;;29.03;100.00
26711;BME280;18311;52.754;18.118;2022-08-14T12:32:02;100063.30;;;29.40;100.00
26711;BME280;18311;52.754;18.118;2022-08-14T12:34:37;100059.66;;;29.32;100.00
26711;BME280;18311;52.754;18.118;2022-08-14T12:37:11;100066.23;;;29.10;100.00
26711;BME280;18311;52.754;18.118;2022-08-14T12:39:45;100054.06;;;28.97;100.00
26711;BME280;18311;52.754;18.118;2022-08-14T12:42:16;100054.84;;;28.91;100.00
26711;BME280;18311;52.754;18.118;2022-08-14T12:44:50;100055.03;;;28.90;100.00
26711;BME280;18311;52.754;18.118;2022-08-14T12:47:25;100055.39;;;28.80;100.00
26711;BME280;18311;52.754;18.118;2022-08-14T12:50:00;100044.71;;;28.12;100.00
26711;BME280;18311;52.754;18.118;2022-08-14T12:52:33;100044.71;;;28.12;100.00
26711;BME280;18311;52.754;18.118;2022-08-14T12:55:09;100054.34;;;28.59;100.00
26711;BME280;18311;52.754;18.118;2022-08-14T12:57:42;100048.59;;;28.39;100.00
26711;BME280;18311;52.754;18.118;2022-08-14T13:00:21;100049.39;;;28.33;100.00
26711;BME280;18311;52.754;18.118;2022-08-14T13:02:54;100052.88;;;28.05;100.00
26711;BME280;18311;52.754;18.118;2022-08-14T13:05:28;100045.83;;;28.18;100.00
26711;BME280;18311;52.754;18.118;2022-08-14T13:08:03;100030.24;;;28.61;100.00
26711;BME280;18311;52.754;18.118;2022-08-14T13:10:37;100030.27;;;28.90;100.00
26711;BME280;18311;52.754;18.118;2022-08-14T13:13:10;100033.31;;;28.73;100.00
26711;BME280;18311;52.754;18.118;2022-08-14T13:15:46;100017.52;;;28.82;100.00